Latest Coastal Weather Observations for Gannett Cay

IDQ60701

Issued at 7:21 pm EST Wednesday 18 October 2017 (issued every 10 minutes, with the page automatically refreshed every 10 minutes)

About coastal observations | Map of coastal stations | Coastal observations for QLD | Marine services | Other Formats
Station Details ID: 200831 Name: GANNET CAY Lat: -21.98 Lon: 152.47 Height: 2.3 m
Data from the previous 72 hours. | See also: Recent months for locations in Queensland
Date/Time
EST
Temp
°C
Wind Pressure Rain since
9am
mm
Weather Cloud Vis
km
Sea
Height
m
Swell
Dir  Spd
kts
Gust
kts
hPa Trend Height
m
Period
s
Dir
18/07:00pm 24.6 E 25 29 1016.9 - - - - - - - - -
18/06:30pm 24.5 E 25 29 1016.7 - - - - - - - - -
18/06:29pm 24.5 E 25 - 1016.8 - - - - - - - - -
18/06:00pm 24.8 E 25 29 1016.3 - - - - - - - - -
18/05:30pm 24.7 E 23 27 1016.0 - - - - - - - - -
18/05:29pm 24.7 E 23 - 1016.1 - - - - - - - - -
18/05:00pm 24.9 E 21 25 1015.6 - - - - - - - - -
18/04:30pm 24.8 E 21 25 1015.4 - - - - - - - - -
18/04:29pm 24.7 E 21 - 1015.4 - - - - - - - - -
18/04:00pm 25.1 E 21 25 1014.9 - - - - - - - - -
18/03:30pm 25.1 E 21 25 1014.7 - - - - - - - - -
18/03:29pm 25.2 E 22 - 1014.8 - - - - - - - - -
18/03:00pm 25.1 E 20 25 1014.6 - - - - - - - - -
18/02:30pm 25.3 E 20 23 1014.7 - - - - - - - - -
18/02:29pm 25.3 E 20 - 1014.8 - - - - - - - - -
18/02:00pm 25.3 E 20 24 1014.8 - - - - - - - - -
18/01:30pm 25.4 E 21 24 1014.9 - - - - - - - - -
18/01:29pm 25.3 E 21 - 1015.0 - - - - - - - - -
18/01:00pm 25.2 E 20 24 1014.9 - - - - - - - - -
18/12:30pm 25.6 E 20 24 1015.2 - - - - - - - - -
18/12:29pm 25.4 E 20 - 1015.3 - - - - - - - - -
18/12:00pm 25.4 E 18 21 1015.6 - - - - - - - - -
18/11:30am 25.3 E 18 20 1015.9 - - - - - - - - -
18/11:29am 25.3 E 18 - 1016.0 - - - - - - - - -
18/11:00am 25.3 E 17 19 1016.1 - - - - - - - - -
18/10:30am 25.0 E 18 21 1016.2 - - - - - - - - -
18/10:29am 25.0 E 18 - 1016.3 - - - - - - - - -
18/10:00am 25.0 E 17 20 1016.4 - - - - - - - - -
18/09:30am 25.2 E 17 19 1016.6 - - - - - - - - -
18/09:29am 25.2 E 17 - 1016.7 - - - - - - - - -
18/09:00am 25.2 E 19 22 1016.5 - - - - - - - - -
18/08:30am 25.2 E 17 20 1016.4 - - - - - - - - -
18/08:29am 25.2 E 17 - 1016.5 - - - - - - - - -
18/08:00am 25.2 E 17 20 1015.8 - - - - - - - - -
18/07:30am 25.1 E 17 19 1015.4 - - - - - - - - -
18/07:29am 25.0 E 17 - 1015.5 - - - - - - - - -
18/07:00am 24.9 E 17 19 1014.8 - - - - - - - - -
18/06:30am 24.9 E 17 19 1014.5 - - - - - - - - -
18/06:29am 24.9 E 17 - 1014.6 - - - - - - - - -
18/06:00am 24.8 ENE 17 20 1014.1 - - - - - - - - -
18/05:30am 24.8 E 18 20 1013.8 - - - - - - - - -
18/05:29am 24.7 E 18 - 1013.9 - - - - - - - - -
18/05:00am 24.8 E 18 21 1013.5 - - - - - - - - -
18/04:30am 24.7 ENE 18 20 1013.3 - - - - - - - - -
18/04:29am 24.6 ENE 18 - 1013.3 - - - - - - - - -
18/04:00am 24.7 E 17 19 1013.0 - - - - - - - - -
18/03:30am 24.6 E 17 20 1012.7 - - - - - - - - -
18/03:29am 24.5 E 17 - 1012.8 - - - - - - - - -
18/03:00am 24.5 ENE 18 22 1012.6 - - - - - - - - -
18/02:30am 24.6 E 19 21 1012.6 - - - - - - - - -
18/02:29am 24.4 E 18 - 1012.7 - - - - - - - - -
18/02:00am 24.4 E 17 19 1012.8 - - - - - - - - -
18/01:30am 24.3 ENE 16 17 1013.1 - - - - - - - - -
18/01:29am 24.2 ENE 16 - 1013.2 - - - - - - - - -
18/01:00am 24.0 ENE 20 25 1013.5 - - - - - - - - -
18/12:49am 23.9 ENE 18 29 1013.6 - - - - - - - - -
18/12:30am 24.3 ENE 21 28 1013.7 - - - - - - - - -
18/12:29am 24.3 ENE 21 - 1013.8 - - - - - - - - -
18/12:00am 24.7 ENE 21 25 1013.8 - - - - - - - - -
 
Date/Time
EST
Temp
°C
Wind Pressure Rain since
9am
mm
Weather Cloud Vis
km
Sea
Height
m
Swell
Dir  Spd
kts
Gust
kts
hPa Trend Height
m
Period
s
Dir
17/11:30pm 24.9 ENE 21 25 1014.0 - - - - - - - - -
17/11:29pm 24.9 ENE 22 - 1014.1 - - - - - - - - -
17/11:00pm 24.7 ENE 23 27 1013.9 - - - - - - - - -
17/10:30pm 24.9 ENE 24 28 1014.0 - - - - - - - - -
17/10:29pm 24.9 ENE 24 - 1014.1 - - - - - - - - -
17/10:00pm 24.9 E 23 26 1014.2 - - - - - - - - -
17/09:30pm 24.8 E 21 25 1014.3 - - - - - - - - -
17/09:29pm 24.8 E 21 - 1014.4 - - - - - - - - -
17/09:00pm 24.8 E 21 23 1014.4 - - - - - - - - -
17/08:30pm 24.4 E 20 24 1014.0 - - - - - - - - -
17/08:29pm 24.4 E 20 - 1014.1 - - - - - - - - -
17/08:15pm 24.3 E 20 24 1013.9 - - - - - - - - -
17/08:00pm 23.8 NE 19 25 1014.0 - - - - - - - - -
17/07:30pm 22.3 NE 26 33 1013.7 - - - - - - - - -
17/07:29pm 22.5 NE 26 - 1013.7 - - - - - - - - -
17/07:21pm 23.3 NE 26 30 1013.6 - - - - - - - - -
17/07:00pm 24.7 E 23 26 1013.4 - - - - - - - - -
17/06:30pm 24.5 E 21 24 1013.3 - - - - - - - - -
17/06:29pm 24.5 E 20 - 1013.4 - - - - - - - - -
17/06:00pm 23.8 E 23 27 1012.8 - - - - - - - - -
17/05:30pm 24.7 E 20 25 1012.1 - - - - - - - - -
17/05:29pm 24.7 E 20 - 1012.2 - - - - - - - - -
17/05:26pm 24.7 ENE 20 24 1012.0 - - - - - - - - -
17/05:00pm 24.8 NE 19 22 1011.8 - - - - - - - - -
17/04:30pm 24.7 NE 19 21 1012.0 - - - - - - - - -
17/04:29pm 24.7 NE 19 - 1012.1 - - - - - - - - -
17/04:00pm 24.8 ENE 20 23 1011.5 - - - - - - - - -
17/03:30pm 24.8 E 20 23 1011.1 - - - - - - - - -
17/03:29pm 24.8 E 20 - 1011.2 - - - - - - - - -
17/03:00pm 24.9 ENE 19 22 1010.8 - - - - - - - - -
17/02:30pm 24.8 ENE 19 21 1010.6 - - - - - - - - -
17/02:29pm 24.8 ENE 19 - 1010.7 - - - - - - - - -
17/02:00pm 24.6 ENE 13 14 1011.1 - - - - - - - - -
17/01:30pm 24.5 ENE 12 14 1011.5 - - - - - - - - -
17/01:29pm 24.6 NE 12 - 1011.6 - - - - - - - - -
17/01:00pm 24.5 NE 11 13 1011.9 - - - - - - - - -
17/12:30pm 24.4 NE 10 11 1012.1 - - - - - - - - -
17/12:29pm 24.7 NE 10 - 1012.2 - - - - - - - - -
17/12:00pm 24.5 NE 10 11 1012.3 - - - - - - - - -
17/11:30am 24.3 NNE 12 14 1012.6 - - - - - - - - -
17/11:29am 24.3 NNE 12 - 1012.7 - - - - - - - - -
17/11:00am 24.0 NNE 17 19 1012.9 - - - - - - - - -
17/10:30am 24.1 NE 19 21 1013.3 - - - - - - - - -
17/10:29am 24.2 NE 19 - 1013.3 - - - - - - - - -
17/10:00am 23.7 NE 24 27 1013.4 - - - - - - - - -
17/09:30am 24.2 NNE 17 20 1013.5 - - - - - - - - -
17/09:29am 24.2 NNE 17 - 1013.6 - - - - - - - - -
17/09:00am 24.1 NNE 18 21 1013.2 - - - - - - - - -
17/08:30am 24.8 ENE 17 19 1012.9 - - - - - - - - -
17/08:29am 24.8 ENE 17 - 1013.0 - - - - - - - - -
17/08:00am 25.0 E 14 16 1012.8 - - - - - - - - -
17/07:30am 24.8 E 13 15 1012.2 - - - - - - - - -
17/07:29am 24.8 E 13 - 1012.3 - - - - - - - - -
17/07:00am 24.7 E 11 13 1012.3 - - - - - - - - -
17/06:30am 24.7 E 13 14 1011.8 - - - - - - - - -
17/06:29am 24.6 E 13 - 1011.9 - - - - - - - - -
17/06:00am 24.5 E 11 13 1011.6 - - - - - - - - -
17/05:30am 24.5 ESE 11 13 1011.1 - - - - - - - - -
17/05:29am 24.5 ESE 11 - 1011.2 - - - - - - - - -
17/05:00am 24.7 E 11 12 1010.7 - - - - - - - - -
17/04:30am 24.4 ESE 10 12 1010.2 - - - - - - - - -
17/04:29am 24.4 ESE 10 - 1010.3 - - - - - - - - -
17/04:00am 24.4 ESE 13 14 1009.9 - - - - - - - - -
17/03:30am 24.4 ESE 13 15 1009.8 - - - - - - - - -
17/03:29am 24.2 ESE 13 - 1009.9 - - - - - - - - -
17/03:00am 24.3 SE 13 15 1010.3 - - - - - - - - -
17/02:30am 24.3 SE 12 13 1010.7 - - - - - - - - -
17/02:29am 24.2 SE 12 - 1010.8 - - - - - - - - -
17/02:00am 24.3 SE 13 14 1010.4 - - - - - - - - -
17/01:30am 24.2 SE 11 12 1011.0 - - - - - - - - -
17/01:29am 24.3 SE 10 - 1011.1 - - - - - - - - -
17/01:00am 24.4 SE 9 10 1011.7 - - - - - - - - -
17/12:30am 24.3 SE 9 9 1011.9 - - - - - - - - -
17/12:29am 24.3 SE 9 - 1012.0 - - - - - - - - -
17/12:00am 24.3 SE 8 9 1012.0 - - - - - - - - -
 
Date/Time
EST
Temp
°C
Wind Pressure Rain since
9am
mm
Weather Cloud Vis
km
Sea
Height
m
Swell
Dir  Spd
kts
Gust
kts
hPa Trend Height
m
Period
s
Dir
16/11:30pm 24.4 SE 7 8 1012.1 - - - - - - - - -
16/11:29pm 24.3 SE 7 - 1012.2 - - - - - - - - -
16/11:00pm 24.3 SE 8 9 1012.2 - - - - - - - - -
16/10:30pm 24.4 ESE 7 8 1012.7 - - - - - - - - -
16/10:29pm 24.4 ESE 7 - 1012.8 - - - - - - - - -
16/10:00pm 24.4 ESE 9 11 1012.4 - - - - - - - - -
16/09:30pm 24.5 SE 8 9 1012.6 - - - - - - - - -
16/09:29pm 24.4 SE 8 - 1012.8 - - - - - - - - -
16/09:00pm 24.3 SE 8 9 1012.1 - - - - - - - - -
16/08:30pm 24.4 SE 8 9 1011.8 - - - - - - - - -
16/08:29pm 24.3 SE 8 - 1011.9 - - - - - - - - -
16/08:00pm 24.3 SE 7 8 1011.7 - - - - - - - - -
16/07:30pm 24.4 S 7 8 1011.4 - - - - - - - - -
16/07:29pm 24.4 S 7 - 1011.5 - - - - - - - - -
16/07:00pm 24.4 S 6 7 1011.1 - - - - - - - - -
16/06:30pm 24.4 S 6 7 1010.8 - - - - - - - - -
16/06:29pm 24.4 S 6 - 1010.9 - - - - - - - - -
16/06:00pm 24.3 SW 5 6 1011.0 - - - - - - - - -
16/05:30pm 24.4 SSW 5 6 1010.9 - - - - - - - - -
16/05:29pm 24.4 SSW 5 - 1011.0 - - - - - - - - -
16/05:00pm 24.3 S 8 8 1010.0 - - - - - - - - -
16/04:30pm 24.4 S 5 7 1009.9 - - - - - - - - -
16/04:29pm 24.4 S 5 - 1010.0 - - - - - - - - -
16/04:00pm 24.5 S 4 6 1010.0 - - - - - - - - -
16/03:30pm 24.8 S 4 5 1009.9 - - - - - - - - -
16/03:29pm 24.7 S 4 - 1009.9 - - - - - - - - -
16/03:00pm 24.8 S 3 4 1009.9 - - - - - - - - -
16/02:30pm 24.9 WSW 1 3 1009.8 - - - - - - - - -
16/02:29pm 24.9 SW 2 - 1009.9 - - - - - - - - -
16/02:00pm 25.1 S 2 3 1009.8 - - - - - - - - -
16/01:30pm 25.3 CALM 0 0 1009.9 - - - - - - - - -
16/01:29pm 25.4 CALM 0 - 1010.0 - - - - - - - - -
16/01:00pm 26.6 CALM 0 0 1010.3 - - - - - - - - -
16/12:30pm 26.1 CALM 0 0 1010.6 - - - - - - - - -
16/12:29pm 26.1 CALM 0 - 1010.7 - - - - - - - - -
16/12:00pm 24.8 NNE 2 4 1011.1 - - - - - - - - -
16/11:30am 25.4 CALM 0 3 1011.6 - - - - - - - - -
16/11:29am 25.4 E 1 - 1011.7 - - - - - - - - -
16/11:00am 26.0 ESE 4 5 1011.7 - - - - - - - - -
16/10:30am 25.3 ESE 4 5 1011.9 - - - - - - - - -
16/10:29am 25.5 ESE 4 - 1012.0 - - - - - - - - -
16/10:00am 25.9 SE 4 5 1012.0 - - - - - - - - -
16/09:30am 25.8 SE 3 4 1012.2 - - - - - - - - -
16/09:29am 25.8 SE 3 - 1012.3 - - - - - - - - -
16/09:00am 25.4 SE 3 4 1011.9 - - - - - - - - -
16/08:30am 26.2 CALM 0 0 1012.1 - - - - - - - - -
16/08:29am 26.0 CALM 0 - 1012.2 - - - - - - - - -
16/08:00am 25.6 E 3 4 1011.9 - - - - - - - - -
16/07:30am 24.5 SE 5 6 1011.5 - - - - - - - - -
16/07:29am 24.5 SE 5 - 1011.6 - - - - - - - - -
16/07:00am 24.0 SE 5 6 1011.0 - - - - - - - - -
16/06:30am 23.8 SE 4 6 1010.7 - - - - - - - - -
16/06:29am 23.7 SE 4 - 1010.8 - - - - - - - - -
16/06:00am 23.7 SSE 6 7 1010.4 - - - - - - - - -
16/05:30am 23.4 SSE 5 6 1010.0 - - - - - - - - -
16/05:29am 23.4 SSE 5 - 1010.1 - - - - - - - - -
16/05:00am 23.3 SE 6 7 1009.8 - - - - - - - - -
16/04:30am 23.3 SE 6 8 1009.6 - - - - - - - - -
16/04:29am 23.3 SE 6 - 1009.7 - - - - - - - - -
16/04:00am 23.2 SE 6 8 1009.1 - - - - - - - - -
16/03:30am 23.3 SSE 7 8 1008.9 - - - - - - - - -
16/03:29am 23.4 SSE 7 - 1009.1 - - - - - - - - -
16/03:00am 23.3 SSE 7 8 1009.0 - - - - - - - - -
16/02:30am 23.3 SE 8 9 1009.0 - - - - - - - - -
16/02:29am 23.3 SE 8 - 1009.2 - - - - - - - - -
16/02:00am 23.4 SSE 9 11 1009.6 - - - - - - - - -
16/01:30am 23.3 SSE 9 10 1009.8 - - - - - - - - -
16/01:29am 23.4 SSE 9 - 1009.8 - - - - - - - - -
16/01:00am 23.5 SSE 9 11 1010.0 - - - - - - - - -
16/12:30am 23.6 SSE 10 12 1010.5 - - - - - - - - -
16/12:29am 23.5 SSE 10 - 1010.6 - - - - - - - - -
16/12:00am 23.5 SSE 10 11 1010.6 - - - - - - - - -
 
Date/Time
EST
Temp
°C
Wind Pressure Rain since
9am
mm
Weather Cloud Vis
km
Sea
Height
m
Swell
Dir  Spd
kts
Gust
kts
hPa Trend Height
m
Period
s
Dir
15/11:30pm 23.6 SE 10 12 1010.9 - - - - - - - - -
15/11:29pm 23.5 SE 10 - 1011.0 - - - - - - - - -
15/11:00pm 23.7 SE 11 12 1010.8 - - - - - - - - -
15/10:30pm 23.5 SSE 13 15 1011.2 - - - - - - - - -
15/10:29pm 23.8 SSE 13 - 1011.3 - - - - - - - - -
15/10:00pm 23.7 SSE 13 16 1011.4 - - - - - - - - -
15/09:30pm 23.8 SSE 13 15 1011.6 - - - - - - - - -
15/09:29pm 23.8 SSE 13 - 1011.6 - - - - - - - - -
15/09:00pm 23.8 SSE 12 14 1011.3 - - - - - - - - -
15/08:30pm 23.8 SSE 13 15 1011.0 - - - - - - - - -
15/08:29pm 23.9 SSE 13 - 1011.1 - - - - - - - - -
15/08:00pm 23.9 SSE 13 15 1010.8 - - - - - - - - -
15/07:30pm 24.0 SSE 15 16 1010.2 - - - - - - - - -
15/07:29pm 24.0 SSE 15 - 1010.3 - - - - - - - - -

Other Formats:

Comma delimited format used in spreadsheet applications
http://www.bom.gov.au/fwo/IDQ60701/IDQ60701.94379.axf

JavaScript Object Notation format (JSON) in row-major order
http://www.bom.gov.au/fwo/IDQ60701/IDQ60701.94379.json